createdAt,value
2022-12-23T00:00:23.330Z,97625.63
2022-12-23T00:01:26.451Z,97624.78
2022-12-23T00:02:30.801Z,97627.38
2022-12-23T00:03:33.420Z,97625.63
2022-12-23T00:04:36.579Z,97625.63
2022-12-23T00:05:39.026Z,97628.19
2022-12-23T00:06:41.791Z,97632.56
2022-12-23T00:07:44.883Z,97625.84
2022-12-23T00:08:47.800Z,97634.53
2022-12-23T00:09:49.722Z,97638.16
2022-12-23T00:10:53.824Z,97639.84
2022-12-23T00:12:13.936Z,97642.50
2022-12-23T00:13:35.970Z,97636.53
2022-12-23T00:14:56.141Z,97647.13
2022-12-23T00:16:03.349Z,97638.75
2022-12-23T00:17:17.569Z,97642.28
2022-12-23T00:18:24.695Z,97650.13
2022-12-23T00:19:26.524Z,97647.69
2022-12-23T00:20:29.328Z,97646.03
2022-12-23T00:21:32.348Z,97650.38
2022-12-23T00:22:49.182Z,97654.00
2022-12-23T00:23:52.271Z,97651.66
2022-12-23T00:24:54.237Z,97652.50
2022-12-23T00:25:57.006Z,97641.34
2022-12-23T00:26:58.921Z,97651.66
2022-12-23T00:28:02.223Z,97654.25
2022-12-23T00:29:06.392Z,97648.38
2022-12-23T00:30:10.368Z,97645.91
2022-12-23T00:31:14.305Z,97649.44
2022-12-23T00:32:16.436Z,97646.03
2022-12-23T00:33:21.076Z,97652.13
2022-12-23T00:34:23.049Z,97647.88
2022-12-23T00:35:25.860Z,97652.22
2022-12-23T00:36:30.512Z,97648.75
2022-12-23T00:37:32.633Z,97658.22
2022-12-23T00:38:53.208Z,97654.72
2022-12-23T00:40:13.457Z,97658.22
2022-12-23T00:41:37.123Z,97656.56
2022-12-23T00:42:59.649Z,97658.47
2022-12-23T00:44:03.359Z,97649.16
2022-12-23T00:45:16.361Z,97658.69
2022-12-23T00:46:18.390Z,97666.44
2022-12-23T00:47:38.977Z,97657.88
2022-12-23T00:48:59.064Z,97658.00
2022-12-23T00:50:01.918Z,97660.69
2022-12-23T00:51:03.881Z,97657.25
2022-12-23T00:52:08.438Z,97660.69
2022-12-23T00:53:10.676Z,97660.78
2022-12-23T00:54:13.446Z,97665.84
2022-12-23T00:55:15.524Z,97671.03
2022-12-23T00:56:18.622Z,97671.03
2022-12-23T00:57:20.514Z,97666.69
2022-12-23T00:58:23.339Z,97666.69
2022-12-23T00:59:25.576Z,97671.84
2022-12-23T01:00:43.866Z,97671.03
2022-12-23T01:02:04.253Z,97671.13
2022-12-23T01:03:24.927Z,97669.34
2022-12-23T01:04:45.735Z,97675.47
2022-12-23T01:05:48.939Z,97681.56
2022-12-23T01:06:50.759Z,97671.38
2022-12-23T01:07:53.503Z,97673.81
2022-12-23T01:08:55.621Z,97668.78
2022-12-23T01:09:58.510Z,97665.25
2022-12-23T01:11:02.766Z,97673.00
2022-12-23T01:12:06.350Z,97660.09
2022-12-23T01:13:08.790Z,97662.78
2022-12-23T01:14:12.692Z,97660.22
2022-12-23T01:15:14.861Z,97661.84
2022-12-23T01:16:19.019Z,97654.94
2022-12-23T01:17:20.911Z,97658.31
2022-12-23T01:18:23.827Z,97665.25
2022-12-23T01:19:26.648Z,97665.38
2022-12-23T01:20:28.657Z,97665.47
2022-12-23T01:21:31.620Z,97665.47
2022-12-23T01:22:33.533Z,97663.00
2022-12-23T01:23:36.980Z,97665.59
2022-12-23T01:24:38.980Z,97657.03
2022-12-23T01:25:41.776Z,97660.31
2022-12-23T01:26:43.650Z,97665.47
2022-12-23T01:27:46.571Z,97666.28
2022-12-23T01:28:48.445Z,97669.69
2022-12-23T01:29:51.277Z,97665.47
2022-12-23T01:30:53.274Z,97666.41
2022-12-23T01:31:57.468Z,97663.13
2022-12-23T01:32:59.763Z,97659.72
2022-12-23T01:34:02.624Z,97670.88
2022-12-23T01:35:05.243Z,97661.47
2022-12-23T01:36:09.265Z,97665.72
2022-12-23T01:37:12.147Z,97659.72
2022-12-23T01:38:14.437Z,97667.47
2022-12-23T01:39:17.733Z,97667.34
2022-12-23T01:40:20.086Z,97665.72
2022-12-23T01:41:38.567Z,97660.56
2022-12-23T01:42:47.752Z,97664.03
2022-12-23T01:43:51.978Z,97668.38
2022-12-23T01:44:58.207Z,97663.22
2022-12-23T01:46:01.107Z,97669.34
2022-12-23T01:47:05.218Z,97665.00
2022-12-23T01:48:10.894Z,97656.41
2022-12-23T01:49:12.685Z,97660.75
2022-12-23T01:50:18.537Z,97658.88
2022-12-23T01:51:24.002Z,97659.00
2022-12-23T01:52:27.119Z,97667.56
2022-12-23T01:53:32.221Z,97652.19
2022-12-23T01:54:34.589Z,97663.22
2022-12-23T01:55:41.469Z,97669.22
2022-12-23T01:56:44.067Z,97661.72
2022-12-23T01:57:47.877Z,97672.84
2022-12-23T01:58:52.145Z,97668.50
2022-12-23T02:00:21.592Z,97668.50
2022-12-23T02:01:42.659Z,97669.44
2022-12-23T02:03:11.260Z,97676.38
2022-12-23T02:04:18.346Z,97669.56
2022-12-23T02:05:21.468Z,97671.31
2022-12-23T02:06:53.485Z,97668.72
2022-12-23T02:08:14.400Z,97673.19
2022-12-23T02:09:19.339Z,97667.31
2022-12-23T02:10:24.299Z,97670.72
2022-12-23T02:11:39.159Z,97668.25
2022-12-23T02:12:49.373Z,97666.59
2022-12-23T02:14:12.883Z,97662.38
2022-12-23T02:15:42.700Z,97668.47
2022-12-23T02:16:49.958Z,97672.22
2022-12-23T02:18:00.697Z,97673.03
2022-12-23T02:19:11.960Z,97675.88
2022-12-23T02:20:56.140Z,97676.78
2022-12-23T02:22:14.252Z,97673.50
2022-12-23T02:23:38.959Z,97678.78
2022-12-23T02:25:13.824Z,97691.78
2022-12-23T02:26:30.837Z,97687.47
2022-12-23T02:28:03.330Z,97684.28
2022-12-23T02:29:21.811Z,97692.84
2022-12-23T02:30:38.630Z,97692.84
2022-12-23T02:31:47.183Z,97688.50
2022-12-23T02:32:59.991Z,97688.50
2022-12-23T02:34:10.420Z,97691.06
2022-12-23T02:35:14.933Z,97692.00
2022-12-23T02:36:27.954Z,97684.28
2022-12-23T02:37:36.852Z,97692.72
2022-12-23T02:38:45.753Z,97690.94
2022-12-23T02:39:52.834Z,97690.03
2022-12-23T02:41:06.431Z,97697.66
2022-12-23T02:42:12.336Z,97686.59
2022-12-23T02:43:17.775Z,97679.72
2022-12-23T02:44:29.375Z,97691.91
2022-12-23T02:45:36.978Z,97691.19
2022-12-23T02:46:44.595Z,97695.63
2022-12-23T02:47:50.229Z,97693.16
2022-12-23T02:48:55.591Z,97685.53
2022-12-23T02:50:00.231Z,97695.13
2022-12-23T02:51:03.723Z,97693.63
2022-12-23T02:52:09.339Z,97697.13
2022-12-23T02:53:16.377Z,97691.16
2022-12-23T02:54:20.855Z,97694.63
2022-12-23T02:55:28.749Z,97687.00
2022-12-23T02:56:32.499Z,97684.44
2022-12-23T02:57:37.100Z,97692.19
2022-12-23T02:58:44.580Z,97693.81
2022-12-23T02:59:49.491Z,97691.16
2022-12-23T03:00:53.579Z,97687.72
2022-12-23T03:01:57.155Z,97687.72
2022-12-23T03:02:59.406Z,97684.31
2022-12-23T03:04:02.316Z,97682.56
2022-12-23T03:05:05.057Z,97680.81
2022-12-23T03:06:17.088Z,97681.41
2022-12-23T03:07:21.288Z,97670.06
2022-12-23T03:08:26.988Z,97676.72
2022-12-23T03:09:36.346Z,97680.88
2022-12-23T03:10:47.423Z,97677.22
2022-12-23T03:11:55.752Z,97680.53
2022-12-23T03:13:04.357Z,97677.13
2022-12-23T03:14:36.862Z,97683.13
2022-12-23T03:15:43.542Z,97681.25
2022-12-23T03:16:52.597Z,97684.53
2022-12-23T03:18:02.098Z,97684.44
2022-12-23T03:19:11.631Z,97691.72
2022-12-23T03:20:19.215Z,97689.03
2022-12-23T03:21:27.844Z,97689.75
2022-12-23T03:22:32.952Z,97685.41
2022-12-23T03:23:39.719Z,97680.25
2022-12-23T03:24:47.345Z,97681.88
2022-12-23T03:25:57.035Z,97682.81
2022-12-23T03:27:04.864Z,97683.53
2022-12-23T03:28:18.131Z,97685.88
2022-12-23T03:29:24.405Z,97690.00
2022-12-23T03:30:28.291Z,97683.88
2022-12-23T03:31:31.746Z,97685.56
2022-12-23T03:32:39.146Z,97693.88
2022-12-23T03:33:42.884Z,97683.53
2022-12-23T03:34:48.941Z,97689.53
2022-12-23T03:35:54.285Z,97686.94
2022-12-23T03:36:58.764Z,97687.78
2022-12-23T03:38:02.981Z,97681.69
2022-12-23T03:39:08.368Z,97682.59
2022-12-23T03:40:13.591Z,97688.63
2022-12-23T03:41:20.305Z,97686.84
2022-12-23T03:42:26.134Z,97686.75
2022-12-23T03:43:31.878Z,97689.31
2022-12-23T03:44:37.268Z,97690.13
2022-12-23T03:45:42.776Z,97690.97
2022-12-23T03:46:48.898Z,97691.91
2022-12-23T03:47:55.977Z,97693.66
2022-12-23T03:49:01.221Z,97693.66
2022-12-23T03:50:07.420Z,97682.59
2022-12-23T03:51:13.048Z,97687.69
2022-12-23T03:52:21.514Z,97692.03
2022-12-23T03:53:27.336Z,97688.38
2022-12-23T03:54:33.440Z,97683.34
2022-12-23T03:55:41.365Z,97685.91
2022-12-23T03:56:47.766Z,97693.66
2022-12-23T03:57:56.113Z,97688.50
2022-12-23T03:59:00.633Z,97687.69
2022-12-23T04:00:02.520Z,97692.13
2022-12-23T04:01:13.782Z,97687.78
2022-12-23T04:02:20.577Z,97681.91
2022-12-23T04:03:32.076Z,97689.78
2022-12-23T04:04:44.830Z,97681.44
2022-12-23T04:05:51.148Z,97686.81
2022-12-23T04:06:56.843Z,97685.97
2022-12-23T04:08:03.407Z,97676.72
2022-12-23T04:09:07.493Z,97685.50
2022-12-23T04:10:11.114Z,97678.81
2022-12-23T04:11:13.082Z,97676.34
2022-12-23T04:12:16.359Z,97679.03
2022-12-23T04:13:18.137Z,97681.72
2022-12-23T04:14:22.455Z,97675.75
2022-12-23T04:15:26.242Z,97672.47
2022-12-23T04:16:30.174Z,97674.19
2022-12-23T04:17:32.683Z,97670.78
2022-12-23T04:18:36.877Z,97682.06
2022-12-23T04:19:38.732Z,97677.84
2022-12-23T04:20:41.503Z,97676.06
2022-12-23T04:21:43.823Z,97676.06
2022-12-23T04:22:46.835Z,97677.84
2022-12-23T04:23:48.600Z,97674.31
2022-12-23T04:24:51.735Z,97670.09
2022-12-23T04:25:53.533Z,97672.66
2022-12-23T04:26:56.403Z,97669.28
2022-12-23T04:27:58.195Z,97684.88
2022-12-23T04:29:00.956Z,97673.94
2022-12-23T04:30:03.083Z,97669.72
2022-12-23T04:31:06.015Z,97673.34
2022-12-23T04:32:08.310Z,97671.69
2022-12-23T04:33:11.501Z,97666.75
2022-12-23T04:34:15.026Z,97668.63
2022-12-23T04:35:17.854Z,97656.66
2022-12-23T04:36:20.592Z,97655.72
2022-12-23T04:37:22.964Z,97650.75
2022-12-23T04:38:25.733Z,97649.25
2022-12-23T04:39:27.522Z,97650.28
2022-12-23T04:40:30.687Z,97653.78
2022-12-23T04:41:33.421Z,97643.47
2022-12-23T04:42:35.509Z,97652.16
2022-12-23T04:43:38.458Z,97651.53
2022-12-23T04:44:40.294Z,97642.28
2022-12-23T04:45:43.085Z,97641.47
2022-12-23T04:46:45.044Z,97633.81
2022-12-23T04:47:48.103Z,97635.69
2022-12-23T04:48:49.943Z,97632.41
2022-12-23T04:49:54.422Z,97626.53
2022-12-23T04:50:56.203Z,97629.34
2022-12-23T04:51:59.467Z,97632.13
2022-12-23T04:53:01.475Z,97622.88
2022-12-23T04:54:04.454Z,97628.22
2022-12-23T04:55:07.249Z,97628.56
2022-12-23T04:56:10.006Z,97630.44
2022-12-23T04:57:11.761Z,97624.78
2022-12-23T04:58:14.603Z,97624.16
2022-12-23T04:59:16.624Z,97623.53
2022-12-23T05:00:20.024Z,97622.03
2022-12-23T05:01:21.836Z,97629.03
2022-12-23T05:02:24.781Z,97629.25
2022-12-23T05:03:26.655Z,97621.66
2022-12-23T05:04:29.702Z,97625.13
2022-12-23T05:05:52.515Z,97629.69
2022-12-23T05:06:54.324Z,97624.75
2022-12-23T05:08:03.803Z,97626.63
2022-12-23T05:09:06.199Z,97628.56
2022-12-23T05:10:10.132Z,97626.19
2022-12-23T05:11:11.901Z,97639.31
2022-12-23T05:12:14.723Z,97633.44
2022-12-23T05:13:16.666Z,97628.41
2022-12-23T05:14:19.524Z,97641.41
2022-12-23T05:15:21.398Z,97629.44
2022-12-23T05:16:24.226Z,97633.66
2022-12-23T05:17:26.033Z,97627.69
2022-12-23T05:18:28.857Z,97630.25
2022-12-23T05:19:30.721Z,97636.25
2022-12-23T05:20:33.454Z,97629.44
2022-12-23T05:21:36.702Z,97635.41
2022-12-23T05:22:39.458Z,97637.19
2022-12-23T05:23:41.218Z,97646.66
2022-12-23T05:24:44.139Z,97643.22
2022-12-23T05:25:50.769Z,97645.00
2022-12-23T05:26:59.760Z,97646.03
2022-12-23T05:28:02.108Z,97646.25
2022-12-23T05:29:05.580Z,97639.56
2022-12-23T05:30:08.697Z,97643.16
2022-12-23T05:31:12.939Z,97635.66
2022-12-23T05:32:14.733Z,97641.94
2022-12-23T05:33:17.534Z,97642.97
2022-12-23T05:34:19.645Z,97644.19
2022-12-23T05:35:22.579Z,97650.59
2022-12-23T05:36:25.433Z,97643.19
2022-12-23T05:37:28.994Z,97650.31
2022-12-23T05:38:32.344Z,97647.09
2022-12-23T05:39:34.143Z,97651.63
2022-12-23T05:40:37.297Z,97649.34
2022-12-23T05:41:39.326Z,97651.41
2022-12-23T05:42:42.237Z,97655.84
2022-12-23T05:43:44.296Z,97655.16
2022-12-23T05:44:47.122Z,97655.34
2022-12-23T05:45:49.670Z,97651.19
2022-12-23T05:46:52.555Z,97660.69
2022-12-23T05:47:54.294Z,97658.84
2022-12-23T05:48:57.101Z,97658.84
2022-12-23T05:49:59.163Z,97654.53
2022-12-23T05:51:01.945Z,97656.16
2022-12-23T05:52:03.888Z,97645.88
2022-12-23T05:53:08.828Z,97650.19
2022-12-23T05:54:11.793Z,97656.16
2022-12-23T05:55:13.613Z,97653.69
2022-12-23T05:56:16.505Z,97651.00
2022-12-23T05:57:18.319Z,97655.34
2022-12-23T05:58:21.078Z,97649.25
2022-12-23T05:59:27.653Z,97655.22
2022-12-23T06:00:33.691Z,97653.47
2022-12-23T06:01:35.581Z,97659.56
2022-12-23T06:02:38.841Z,97647.63
2022-12-23T06:03:40.888Z,97647.63
2022-12-23T06:04:43.711Z,97644.22
2022-12-23T06:05:50.457Z,97644.22
2022-12-23T06:06:53.213Z,97646.91
2022-12-23T06:07:54.975Z,97654.63
2022-12-23T06:09:00.324Z,97654.72
2022-12-23T06:10:02.620Z,97649.66
2022-12-23T06:11:06.203Z,97658.31
2022-12-23T06:12:08.306Z,97647.28
2022-12-23T06:13:11.288Z,97654.19
2022-12-23T06:14:14.247Z,97649.97
2022-12-23T06:15:16.477Z,97644.81
2022-12-23T06:16:19.681Z,97650.78
2022-12-23T06:17:21.657Z,97654.19
2022-12-23T06:18:24.885Z,97653.28
2022-12-23T06:19:26.935Z,97653.28
2022-12-23T06:20:29.772Z,97646.38
2022-12-23T06:21:32.122Z,97647.28
2022-12-23T06:22:34.995Z,97643.00
2022-12-23T06:23:36.856Z,97639.47
2022-12-23T06:24:41.340Z,97648.13
2022-12-23T06:25:44.093Z,97649.16
2022-12-23T06:26:46.255Z,97644.00
2022-12-23T06:27:49.512Z,97644.81
2022-12-23T06:28:51.393Z,97640.59
2022-12-23T06:29:54.218Z,97639.78
2022-12-23T06:30:57.852Z,97638.97
2022-12-23T06:31:59.858Z,97646.69
2022-12-23T06:33:02.899Z,97639.91
2022-12-23T06:34:04.800Z,97639.91
2022-12-23T06:35:08.155Z,97646.75
2022-12-23T06:36:10.242Z,97639.91
2022-12-23T06:37:13.179Z,97640.72
2022-12-23T06:38:16.140Z,97644.13
2022-12-23T06:39:18.008Z,97646.56
2022-12-23T06:40:22.590Z,97648.22
2022-12-23T06:41:24.460Z,97639.66
2022-12-23T06:42:27.561Z,97650.72
2022-12-23T06:43:29.926Z,97645.44
2022-12-23T06:44:32.765Z,97649.66
2022-12-23T06:45:35.095Z,97652.94
2022-12-23T06:46:38.394Z,97648.53
2022-12-23T06:47:41.312Z,97644.09
2022-12-23T06:48:43.139Z,97655.16
2022-12-23T06:49:46.111Z,97655.75
2022-12-23T06:50:49.348Z,97652.97
2022-12-23T06:51:51.201Z,97657.00
2022-12-23T06:52:54.416Z,97652.44
2022-12-23T06:53:56.217Z,97649.69
2022-12-23T06:54:59.065Z,97648.56
2022-12-23T06:56:04.122Z,97651.72
2022-12-23T07:00:25.657Z,97641.03
2022-12-23T07:01:27.845Z,97642.56
2022-12-23T07:02:30.981Z,97640.50
2022-12-23T07:03:32.898Z,97647.91
2022-12-23T07:04:36.109Z,97646.56
2022-12-23T07:05:38.055Z,97645.31
2022-12-23T07:06:40.943Z,97650.16
2022-12-23T07:07:42.773Z,97641.97
2022-12-23T07:08:45.596Z,97644.16
2022-12-23T07:09:47.515Z,97642.91
2022-12-23T07:10:50.851Z,97644.22
2022-12-23T07:11:55.049Z,97642.16
2022-12-23T07:12:56.899Z,97646.16
2022-12-23T07:14:00.395Z,97639.03
2022-12-23T07:15:03.201Z,97637.88
2022-12-23T07:16:06.567Z,97636.94
2022-12-23T07:17:09.807Z,97640.25
2022-12-23T07:18:12.659Z,97639.94
2022-12-23T07:19:14.596Z,97649.19
2022-12-23T07:20:17.790Z,97636.19
2022-12-23T07:21:26.699Z,97642.88
2022-12-23T07:22:32.134Z,97647.09
2022-12-23T07:23:34.049Z,97638.22
2022-12-23T07:24:37.289Z,97643.25
2022-12-23T07:25:39.168Z,97637.28
2022-12-23T07:26:42.047Z,97639.03
2022-12-23T07:27:46.463Z,97634.69
2022-12-23T07:28:48.897Z,97643.16
2022-12-23T07:29:51.897Z,97643.06
2022-12-23T07:30:53.713Z,97638.84
2022-12-23T07:31:56.537Z,97637.41
2022-12-23T07:32:59.420Z,97642.56
2022-12-23T07:34:02.335Z,97638.91
2022-12-23T07:35:04.807Z,97647.41
2022-12-23T07:36:08.307Z,97648.09
2022-12-23T07:37:10.185Z,97644.56
2022-12-23T07:38:13.281Z,97648.91
2022-12-23T07:39:15.499Z,97649.75
2022-12-23T07:40:18.625Z,97646.00
2022-12-23T07:41:20.490Z,97645.88
2022-12-23T07:43:47.249Z,97647.06
2022-12-23T07:44:50.055Z,97646.13
2022-12-23T07:45:59.607Z,97640.84
2022-12-23T07:47:02.033Z,97644.13
2022-12-23T07:48:04.902Z,97656.13
2022-12-23T07:49:08.091Z,97649.09
2022-12-23T07:50:10.396Z,97651.53
2022-12-23T07:51:13.314Z,97655.69
2022-12-23T07:52:15.533Z,97654.72
2022-12-23T07:53:18.422Z,97652.84
2022-12-23T07:54:20.343Z,97660.38
2022-12-23T07:55:23.668Z,97656.03
2022-12-23T07:56:25.515Z,97656.88
2022-12-23T07:57:29.285Z,97660.38
2022-12-23T07:58:31.681Z,97650.06
2022-12-23T07:59:36.328Z,97663.09
2022-12-23T08:00:38.410Z,97653.59
2022-12-23T08:01:41.363Z,97663.78
2022-12-23T08:02:43.569Z,97657.59
2022-12-23T08:03:46.853Z,97657.47
2022-12-23T08:04:48.939Z,97655.72
2022-12-23T08:06:00.215Z,97654.78
2022-12-23T08:07:03.068Z,97657.25
2022-12-23T08:08:05.149Z,97663.25
2022-12-23T08:09:09.369Z,97657.97
2022-12-23T08:10:12.239Z,97654.31
2022-12-23T08:11:15.861Z,97654.94
2022-12-23T08:12:17.703Z,97653.91
2022-12-23T08:13:20.509Z,97646.66
2022-12-23T08:14:23.255Z,97655.78
2022-12-23T08:15:27.433Z,97649.47
2022-12-23T08:16:29.311Z,97648.31
2022-12-23T08:17:32.906Z,97653.22
2022-12-23T08:18:36.668Z,97647.16
2022-12-23T08:19:39.421Z,97648.78
2022-12-23T08:20:41.298Z,97648.66
2022-12-23T08:21:44.062Z,97653.72
2022-12-23T08:22:46.054Z,97652.91
2022-12-23T08:23:49.175Z,97648.53
2022-12-23T08:24:52.558Z,97653.72
2022-12-23T08:26:02.732Z,97649.41
2022-12-23T08:27:04.616Z,97651.84
2022-12-23T08:28:07.612Z,97651.63
2022-12-23T08:29:09.409Z,97643.03
2022-12-23T08:30:13.641Z,97651.41
2022-12-23T08:31:18.991Z,97647.78
2022-12-23T08:32:21.944Z,97643.31
2022-12-23T08:33:24.931Z,97644.81
2022-12-23T08:34:27.818Z,97644.72
2022-12-23T08:35:30.258Z,97640.13
2022-12-23T08:36:34.426Z,97634.75
2022-12-23T08:37:36.342Z,97637.81
2022-12-23T08:38:39.329Z,97628.16
2022-12-23T08:39:41.343Z,97638.16
2022-12-23T08:40:44.505Z,97625.84
2022-12-23T08:41:48.068Z,97619.59
2022-12-23T08:42:51.879Z,97619.25
2022-12-23T08:43:54.034Z,97618.22
2022-12-23T08:44:56.883Z,97621.94
2022-12-23T08:45:58.833Z,97613.03
2022-12-23T08:47:03.059Z,97611.72
2022-12-23T08:48:06.150Z,97613.16
2022-12-23T08:49:09.792Z,97606.91
2022-12-23T08:50:12.767Z,97608.44
2022-12-23T08:51:17.390Z,97608.19
2022-12-23T08:52:20.748Z,97606.19
2022-12-23T08:53:22.628Z,97607.59
2022-12-23T08:54:25.432Z,97606.44
2022-12-23T08:55:27.696Z,97607.69
2022-12-23T08:56:32.433Z,97599.69
2022-12-23T08:57:34.441Z,97604.63
2022-12-23T08:58:38.076Z,97605.91
2022-12-23T08:59:40.881Z,97606.34
2022-12-23T09:00:42.737Z,97600.81
2022-12-23T09:01:45.768Z,97606.59
2022-12-23T09:02:49.085Z,97602.78
2022-12-23T09:03:52.378Z,97595.75
2022-12-23T09:04:55.670Z,97601.59
2022-12-23T09:05:57.502Z,97606.69
2022-12-23T09:07:00.688Z,97598.91
2022-12-23T09:08:03.020Z,97599.72
2022-12-23T09:09:06.697Z,97590.19
2022-12-23T09:10:09.865Z,97591.16
2022-12-23T09:11:14.131Z,97586.91
2022-12-23T09:12:16.047Z,97586.91
2022-12-23T09:13:27.878Z,97583.50
2022-12-23T09:14:35.920Z,97588.78
2022-12-23T09:15:41.174Z,97585.53
2022-12-23T09:16:43.978Z,97589.75
2022-12-23T09:17:45.915Z,97582.81
2022-12-23T09:18:50.061Z,97576.53
2022-12-23T09:19:53.210Z,97582.44
2022-12-23T09:20:58.903Z,97583.00
2022-12-23T09:22:01.624Z,97585.94
2022-12-23T09:23:05.271Z,97582.97
2022-12-23T09:24:08.461Z,97577.28
2022-12-23T09:25:10.936Z,97571.47
2022-12-23T09:26:19.780Z,97568.13
2022-12-23T09:27:22.687Z,97570.22
2022-12-23T09:28:24.744Z,97570.50
2022-12-23T09:29:27.566Z,97571.81
2022-12-23T09:30:29.484Z,97566.09
2022-12-23T09:31:37.399Z,97567.22
2022-12-23T09:32:39.814Z,97566.06
2022-12-23T09:33:42.814Z,97566.50
2022-12-23T09:34:47.023Z,97562.69
2022-12-23T09:35:51.734Z,97557.94
2022-12-23T09:36:55.612Z,97555.91
2022-12-23T09:37:57.512Z,97553.19
2022-12-23T09:39:00.327Z,97557.28
2022-12-23T09:40:03.097Z,97557.16
2022-12-23T09:41:13.360Z,97552.81
2022-12-23T09:42:35.898Z,97554.56
2022-12-23T09:43:43.757Z,97548.69
2022-12-23T09:45:05.297Z,97540.91
2022-12-23T09:46:18.927Z,97547.06
2022-12-23T09:47:23.049Z,97549.66
2022-12-23T09:48:27.200Z,97541.06
2022-12-23T09:49:28.988Z,97545.28
2022-12-23T09:50:34.682Z,97540.09
2022-12-23T09:51:36.746Z,97541.50
2022-12-23T09:52:48.891Z,97543.13
2022-12-23T09:53:57.310Z,97539.44
2022-12-23T09:54:59.276Z,97534.97
2022-12-23T09:56:07.264Z,97537.41
2022-12-23T09:57:18.139Z,97537.41
2022-12-23T09:58:27.651Z,97538.38
2022-12-23T09:59:49.546Z,97534.97
2022-12-23T10:01:02.036Z,97540.16
2022-12-23T10:02:14.347Z,97532.38
2022-12-23T10:03:20.949Z,97530.44
2022-12-23T10:04:47.590Z,97530.59
2022-12-23T10:05:59.571Z,97526.22
2022-12-23T10:07:14.100Z,97530.44
2022-12-23T10:08:19.494Z,97519.00
2022-12-23T10:09:22.329Z,97522.28
2022-12-23T10:10:35.668Z,97520.94
2022-12-23T10:11:41.549Z,97517.81
2022-12-23T10:12:47.753Z,97516.44
2022-12-23T10:13:52.260Z,97517.00
2022-12-23T10:14:55.988Z,97518.41
2022-12-23T10:16:03.337Z,97512.25
2022-12-23T10:17:08.731Z,97519.78
2022-12-23T10:18:17.877Z,97522.09
2022-12-23T10:19:23.937Z,97522.50
2022-12-23T10:20:33.684Z,97523.88
2022-12-23T10:21:46.901Z,97516.50
2022-12-23T10:22:49.745Z,97515.97
2022-12-23T10:23:54.916Z,97517.09
2022-12-23T10:24:57.946Z,97518.97
2022-12-23T10:26:01.655Z,97520.09
2022-12-23T10:27:06.411Z,97519.66
2022-12-23T10:28:10.813Z,97516.81
2022-12-23T10:29:19.431Z,97522.13
2022-12-23T10:31:53.764Z,97522.25
2022-12-23T10:32:59.615Z,97530.03
2022-12-23T10:34:06.984Z,97517.06
2022-12-23T10:35:17.558Z,97523.09
2022-12-23T10:36:23.828Z,97522.41
2022-12-23T10:37:34.565Z,97519.25
2022-12-23T10:38:43.559Z,97518.72
2022-12-23T10:39:55.912Z,97515.56
2022-12-23T10:41:07.065Z,97511.59
2022-12-23T10:42:19.071Z,97518.84
2022-12-23T10:43:27.287Z,97522.53
2022-12-23T10:44:56.279Z,97515.72
2022-12-23T10:46:02.943Z,97517.88
2022-12-23T10:47:13.771Z,97522.25
2022-12-23T10:48:25.593Z,97515.28
2022-12-23T10:49:34.418Z,97511.06
2022-12-23T10:50:51.197Z,97520.63
2022-12-23T10:51:58.631Z,97522.66
2022-12-23T10:53:04.693Z,97521.13
2022-12-23T10:54:10.809Z,97515.13
2022-12-23T10:55:33.206Z,97513.50
2022-12-23T10:56:37.206Z,97511.19
2022-12-23T10:57:40.209Z,97508.59
2022-12-23T10:58:45.160Z,97506.81
2022-12-23T10:59:48.127Z,97515.41
2022-12-23T11:00:55.030Z,97511.88
2022-12-23T11:02:02.584Z,97507.50
2022-12-23T11:03:10.721Z,97506.38
2022-12-23T11:04:16.170Z,97506.38
2022-12-23T11:05:22.678Z,97506.53
2022-12-23T11:06:31.496Z,97508.31
2022-12-23T11:07:45.495Z,97499.72
2022-12-23T11:08:51.258Z,97508.59
2022-12-23T11:09:55.654Z,97506.94
2022-12-23T11:11:00.354Z,97508.44
2022-12-23T11:12:05.043Z,97510.91
2022-12-23T11:13:07.097Z,97503.78
2022-12-23T11:14:30.570Z,97506.94
2022-12-23T11:15:34.267Z,97503.53
2022-12-23T11:16:46.480Z,97505.06
2022-12-23T11:17:58.772Z,97505.88
2022-12-23T11:19:03.748Z,97505.88
2022-12-23T11:20:12.493Z,97503.94
2022-12-23T11:21:15.587Z,97503.94
2022-12-23T11:22:23.937Z,97509.16
2022-12-23T11:23:28.442Z,97502.47
2022-12-23T11:24:37.974Z,97515.44
2022-12-23T11:25:43.717Z,97505.88
2022-12-23T11:26:48.896Z,97511.06
2022-12-23T11:27:51.951Z,97499.03
2022-12-23T11:29:06.505Z,97508.59
2022-12-23T11:30:18.632Z,97508.06
2022-12-23T11:31:27.985Z,97515.94
2022-12-23T11:32:29.897Z,97512.69
2022-12-23T11:33:34.040Z,97515.41
2022-12-23T11:34:37.640Z,97506.94
2022-12-23T11:35:40.537Z,97515.53
2022-12-23T11:37:07.278Z,97511.59
2022-12-23T11:38:13.609Z,97517.84
2022-12-23T11:39:20.188Z,97510.06
2022-12-23T11:40:27.043Z,97506.00
2022-12-23T11:41:34.175Z,97508.44
2022-12-23T11:42:37.049Z,97512.00
2022-12-23T11:43:39.322Z,97519.78
2022-12-23T11:44:44.361Z,97516.22
2022-12-23T11:45:47.129Z,97514.44
2022-12-23T11:46:49.394Z,97516.34
2022-12-23T11:47:53.091Z,97516.22
2022-12-23T11:49:16.770Z,97523.03
2022-12-23T11:50:29.446Z,97524.00
2022-12-23T11:51:31.656Z,97519.47
2022-12-23T11:52:35.049Z,97520.06
2022-12-23T11:53:36.943Z,97516.38
2022-12-23T11:54:40.006Z,97514.16
2022-12-23T11:55:49.546Z,97512.94
2022-12-23T11:56:53.321Z,97513.38
2022-12-23T11:57:56.245Z,97515.72
2022-12-23T11:59:04.021Z,97518.97
2022-12-23T12:00:07.981Z,97511.06
2022-12-23T12:01:18.097Z,97512.81
2022-12-23T12:02:22.042Z,97511.06
2022-12-23T12:03:28.443Z,97509.41
2022-12-23T12:04:32.935Z,97512.00
2022-12-23T12:05:38.535Z,97504.38
2022-12-23T12:06:44.196Z,97511.47
2022-12-23T12:07:47.307Z,97517.59
2022-12-23T12:08:51.753Z,97511.75
2022-12-23T12:09:58.025Z,97509.41
2022-12-23T12:11:08.959Z,97507.09
2022-12-23T12:12:14.963Z,97503.78
2022-12-23T12:13:23.439Z,97507.34
2022-12-23T12:14:32.259Z,97515.13
2022-12-23T12:15:38.515Z,97505.56
2022-12-23T12:16:52.042Z,97508.06
2022-12-23T12:17:56.225Z,97506.13
2022-12-23T12:19:02.155Z,97503.41
2022-12-23T12:20:10.299Z,97495.50
2022-12-23T12:21:15.889Z,97504.78
2022-12-23T12:22:24.186Z,97496.84
2022-12-23T12:23:28.909Z,97506.41
2022-12-23T12:24:34.238Z,97503.00
2022-12-23T12:25:39.999Z,97501.34
2022-12-23T12:26:46.990Z,97507.50
2022-12-23T12:27:54.805Z,97511.06
2022-12-23T12:28:59.540Z,97511.06
2022-12-23T12:30:08.751Z,97501.63
2022-12-23T12:31:17.474Z,97511.19
2022-12-23T12:32:24.213Z,97508.72
2022-12-23T12:33:31.248Z,97502.88
2022-12-23T12:34:40.109Z,97502.97
2022-12-23T12:35:45.366Z,97499.56
2022-12-23T12:36:51.895Z,97503.13
2022-12-23T12:37:58.841Z,97508.44
2022-12-23T12:39:00.660Z,97513.78
2022-12-23T12:40:13.438Z,97504.34
2022-12-23T12:41:18.496Z,97509.81
2022-12-23T12:42:27.552Z,97509.13
2022-12-23T12:43:31.877Z,97515.25
2022-12-23T12:44:38.714Z,97511.84
2022-12-23T12:45:46.867Z,97516.22
2022-12-23T12:46:52.537Z,97518.13
2022-12-23T12:48:17.816Z,97518.97
2022-12-23T12:49:24.013Z,97513.88
2022-12-23T12:50:29.235Z,97506.09
2022-12-23T12:51:36.871Z,97510.34
2022-12-23T12:52:40.597Z,97508.56
2022-12-23T12:53:54.748Z,97518.81
2022-12-23T12:55:00.619Z,97505.84
2022-12-23T12:56:08.117Z,97512.66
2022-12-23T12:57:15.427Z,97523.03
2022-12-23T12:58:21.331Z,97518.66